sensor_id;sensor_type;location;lat;lon;timestamp;P1;durP1;ratioP1;P2;durP2;ratioP2
23317;SDS011;11831;55.918;37.746;2023-02-01T00:00:22;15.10;;;9.07;;
23317;SDS011;11831;55.918;37.746;2023-02-01T00:02:49;14.65;;;7.45;;
23317;SDS011;11831;55.918;37.746;2023-02-01T00:05:15;14.85;;;9.23;;
23317;SDS011;11831;55.918;37.746;2023-02-01T00:07:41;16.12;;;9.93;;
23317;SDS011;11831;55.918;37.746;2023-02-01T00:10:08;20.50;;;9.95;;
23317;SDS011;11831;55.918;37.746;2023-02-01T00:12:35;14.15;;;10.25;;
23317;SDS011;11831;55.918;37.746;2023-02-01T00:15:01;18.62;;;10.15;;
23317;SDS011;11831;55.918;37.746;2023-02-01T00:17:29;17.10;;;10.30;;
23317;SDS011;11831;55.918;37.746;2023-02-01T00:19:55;16.35;;;10.00;;
23317;SDS011;11831;55.918;37.746;2023-02-01T00:22:21;16.30;;;9.88;;
23317;SDS011;11831;55.918;37.746;2023-02-01T00:24:48;17.02;;;9.93;;
23317;SDS011;11831;55.918;37.746;2023-02-01T00:27:14;18.37;;;10.60;;
23317;SDS011;11831;55.918;37.746;2023-02-01T00:29:43;19.37;;;11.10;;
23317;SDS011;11831;55.918;37.746;2023-02-01T00:32:11;16.52;;;10.23;;
23317;SDS011;11831;55.918;37.746;2023-02-01T00:34:37;17.33;;;10.63;;
23317;SDS011;11831;55.918;37.746;2023-02-01T00:37:04;18.27;;;11.38;;
23317;SDS011;11831;55.918;37.746;2023-02-01T00:39:30;18.70;;;10.23;;
23317;SDS011;11831;55.918;37.746;2023-02-01T00:41:57;16.20;;;10.85;;
23317;SDS011;11831;55.918;37.746;2023-02-01T00:44:23;17.37;;;10.40;;
23317;SDS011;11831;55.918;37.746;2023-02-01T00:46:49;16.60;;;10.75;;
23317;SDS011;11831;55.918;37.746;2023-02-01T00:49:16;18.98;;;11.18;;
23317;SDS011;11831;55.918;37.746;2023-02-01T00:51:42;17.15;;;10.38;;
23317;SDS011;11831;55.918;37.746;2023-02-01T00:54:08;20.02;;;11.73;;
23317;SDS011;11831;55.918;37.746;2023-02-01T00:56:35;17.37;;;11.35;;
23317;SDS011;11831;55.918;37.746;2023-02-01T00:59:01;18.77;;;11.40;;
23317;SDS011;11831;55.918;37.746;2023-02-01T01:01:27;18.73;;;10.77;;
23317;SDS011;11831;55.918;37.746;2023-02-01T01:03:58;17.35;;;10.60;;
23317;SDS011;11831;55.918;37.746;2023-02-01T01:06:29;17.77;;;11.38;;
23317;SDS011;11831;55.918;37.746;2023-02-01T01:08:58;17.80;;;11.15;;
23317;SDS011;11831;55.918;37.746;2023-02-01T01:11:27;19.83;;;10.77;;
23317;SDS011;11831;55.918;37.746;2023-02-01T01:13:56;15.55;;;9.98;;
23317;SDS011;11831;55.918;37.746;2023-02-01T01:16:25;17.87;;;10.98;;
23317;SDS011;11831;55.918;37.746;2023-02-01T01:18:52;19.85;;;10.98;;
23317;SDS011;11831;55.918;37.746;2023-02-01T01:21:19;18.17;;;10.25;;
23317;SDS011;11831;55.918;37.746;2023-02-01T01:23:46;18.00;;;10.77;;
23317;SDS011;11831;55.918;37.746;2023-02-01T01:26:20;17.60;;;10.48;;
23317;SDS011;11831;55.918;37.746;2023-02-01T01:28:48;15.57;;;10.57;;
23317;SDS011;11831;55.918;37.746;2023-02-01T01:31:15;15.07;;;9.90;;
23317;SDS011;11831;55.918;37.746;2023-02-01T01:33:43;19.70;;;11.73;;
23317;SDS011;11831;55.918;37.746;2023-02-01T01:36:10;20.88;;;12.98;;
23317;SDS011;11831;55.918;37.746;2023-02-01T01:38:40;25.83;;;15.32;;
23317;SDS011;11831;55.918;37.746;2023-02-01T01:41:07;20.55;;;14.00;;
23317;SDS011;11831;55.918;37.746;2023-02-01T01:46:57;14.32;;;9.70;;
23317;SDS011;11831;55.918;37.746;2023-02-01T01:49:24;18.25;;;10.65;;
23317;SDS011;11831;55.918;37.746;2023-02-01T01:51:56;17.67;;;10.68;;
23317;SDS011;11831;55.918;37.746;2023-02-01T01:54:27;18.62;;;10.15;;
23317;SDS011;11831;55.918;37.746;2023-02-01T01:57:02;17.65;;;10.15;;
23317;SDS011;11831;55.918;37.746;2023-02-01T01:59:38;15.60;;;8.90;;
23317;SDS011;11831;55.918;37.746;2023-02-01T02:02:06;15.13;;;9.43;;
23317;SDS011;11831;55.918;37.746;2023-02-01T02:04:33;14.27;;;8.88;;
23317;SDS011;11831;55.918;37.746;2023-02-01T02:07:05;14.43;;;8.77;;
23317;SDS011;11831;55.918;37.746;2023-02-01T02:09:37;15.02;;;8.63;;
23317;SDS011;11831;55.918;37.746;2023-02-01T02:12:04;15.02;;;9.13;;
23317;SDS011;11831;55.918;37.746;2023-02-01T02:14:30;13.85;;;8.90;;
23317;SDS011;11831;55.918;37.746;2023-02-01T02:20:27;14.52;;;8.98;;
23317;SDS011;11831;55.918;37.746;2023-02-01T02:31:42;13.63;;;8.40;;
23317;SDS011;11831;55.918;37.746;2023-02-01T02:37:22;17.02;;;9.30;;
23317;SDS011;11831;55.918;37.746;2023-02-01T02:42:50;12.77;;;8.38;;
23317;SDS011;11831;55.918;37.746;2023-02-01T02:51:20;16.23;;;8.30;;
23317;SDS011;11831;55.918;37.746;2023-02-01T02:54:17;14.52;;;8.57;;
23317;SDS011;11831;55.918;37.746;2023-02-01T02:57:06;16.75;;;9.50;;
23317;SDS011;11831;55.918;37.746;2023-02-01T02:59:53;14.75;;;8.35;;
23317;SDS011;11831;55.918;37.746;2023-02-01T03:02:42;12.37;;;8.38;;
23317;SDS011;11831;55.918;37.746;2023-02-01T03:05:32;16.83;;;9.32;;
23317;SDS011;11831;55.918;37.746;2023-02-01T03:10:45;18.10;;;8.65;;
23317;SDS011;11831;55.918;37.746;2023-02-01T03:13:22;15.50;;;8.85;;
23317;SDS011;11831;55.918;37.746;2023-02-01T03:19:27;14.65;;;9.02;;
23317;SDS011;11831;55.918;37.746;2023-02-01T03:22:00;16.20;;;9.18;;
23317;SDS011;11831;55.918;37.746;2023-02-01T03:24:31;19.33;;;9.27;;
23317;SDS011;11831;55.918;37.746;2023-02-01T03:27:11;15.95;;;9.50;;
23317;SDS011;11831;55.918;37.746;2023-02-01T03:32:47;16.62;;;9.75;;
23317;SDS011;11831;55.918;37.746;2023-02-01T03:40:49;15.75;;;9.32;;
23317;SDS011;11831;55.918;37.746;2023-02-01T03:43:30;13.40;;;9.20;;
23317;SDS011;11831;55.918;37.746;2023-02-01T03:46:03;13.05;;;9.32;;
23317;SDS011;11831;55.918;37.746;2023-02-01T03:48:36;14.05;;;8.80;;
23317;SDS011;11831;55.918;37.746;2023-02-01T03:51:04;16.45;;;9.70;;
23317;SDS011;11831;55.918;37.746;2023-02-01T03:53:33;14.63;;;9.55;;
23317;SDS011;11831;55.918;37.746;2023-02-01T03:56:02;13.38;;;9.30;;
23317;SDS011;11831;55.918;37.746;2023-02-01T03:58:29;13.82;;;9.05;;
23317;SDS011;11831;55.918;37.746;2023-02-01T04:00:56;13.52;;;8.82;;
23317;SDS011;11831;55.918;37.746;2023-02-01T04:03:25;15.80;;;8.98;;
23317;SDS011;11831;55.918;37.746;2023-02-01T04:05:53;16.33;;;9.27;;
23317;SDS011;11831;55.918;37.746;2023-02-01T04:08:22;15.00;;;8.80;;
23317;SDS011;11831;55.918;37.746;2023-02-01T04:10:49;14.18;;;8.77;;
23317;SDS011;11831;55.918;37.746;2023-02-01T04:13:15;13.88;;;8.98;;
23317;SDS011;11831;55.918;37.746;2023-02-01T04:15:41;15.32;;;9.02;;
23317;SDS011;11831;55.918;37.746;2023-02-01T04:18:08;15.73;;;9.77;;
23317;SDS011;11831;55.918;37.746;2023-02-01T04:20:35;16.05;;;9.65;;
23317;SDS011;11831;55.918;37.746;2023-02-01T04:23:01;17.02;;;9.63;;
23317;SDS011;11831;55.918;37.746;2023-02-01T04:25:28;18.37;;;9.77;;
23317;SDS011;11831;55.918;37.746;2023-02-01T04:27:55;15.93;;;10.18;;
23317;SDS011;11831;55.918;37.746;2023-02-01T04:30:21;16.85;;;9.60;;
23317;SDS011;11831;55.918;37.746;2023-02-01T04:32:49;14.25;;;9.10;;
23317;SDS011;11831;55.918;37.746;2023-02-01T04:35:15;16.00;;;10.35;;
23317;SDS011;11831;55.918;37.746;2023-02-01T04:37:43;14.93;;;9.13;;
23317;SDS011;11831;55.918;37.746;2023-02-01T04:40:10;15.77;;;9.45;;
23317;SDS011;11831;55.918;37.746;2023-02-01T04:42:36;15.80;;;10.10;;
23317;SDS011;11831;55.918;37.746;2023-02-01T04:45:03;15.30;;;9.95;;
23317;SDS011;11831;55.918;37.746;2023-02-01T04:47:30;18.73;;;10.02;;
23317;SDS011;11831;55.918;37.746;2023-02-01T04:49:56;14.23;;;9.40;;
23317;SDS011;11831;55.918;37.746;2023-02-01T04:52:22;14.80;;;10.07;;
23317;SDS011;11831;55.918;37.746;2023-02-01T04:54:48;15.88;;;9.85;;
23317;SDS011;11831;55.918;37.746;2023-02-01T04:57:15;16.90;;;10.02;;
23317;SDS011;11831;55.918;37.746;2023-02-01T04:59:41;15.25;;;9.45;;
23317;SDS011;11831;55.918;37.746;2023-02-01T05:02:07;16.30;;;9.95;;
23317;SDS011;11831;55.918;37.746;2023-02-01T05:04:34;16.80;;;9.65;;
23317;SDS011;11831;55.918;37.746;2023-02-01T05:07:00;15.90;;;9.48;;
23317;SDS011;11831;55.918;37.746;2023-02-01T05:09:26;16.15;;;10.13;;
23317;SDS011;11831;55.918;37.746;2023-02-01T05:11:52;16.08;;;7.85;;
23317;SDS011;11831;55.918;37.746;2023-02-01T05:14:37;15.82;;;10.18;;
23317;SDS011;11831;55.918;37.746;2023-02-01T05:17:03;20.00;;;10.70;;
23317;SDS011;11831;55.918;37.746;2023-02-01T05:19:29;16.98;;;10.95;;
23317;SDS011;11831;55.918;37.746;2023-02-01T05:21:56;17.27;;;10.15;;
23317;SDS011;11831;55.918;37.746;2023-02-01T05:24:22;18.25;;;11.57;;
23317;SDS011;11831;55.918;37.746;2023-02-01T05:26:49;17.45;;;10.52;;
23317;SDS011;11831;55.918;37.746;2023-02-01T05:29:15;17.05;;;10.48;;
23317;SDS011;11831;55.918;37.746;2023-02-01T05:31:46;19.50;;;10.95;;
23317;SDS011;11831;55.918;37.746;2023-02-01T05:34:12;20.92;;;11.43;;
23317;SDS011;11831;55.918;37.746;2023-02-01T05:36:40;16.35;;;10.30;;
23317;SDS011;11831;55.918;37.746;2023-02-01T05:39:06;20.60;;;11.23;;
23317;SDS011;11831;55.918;37.746;2023-02-01T05:41:32;20.70;;;10.70;;
23317;SDS011;11831;55.918;37.746;2023-02-01T05:43:59;22.02;;;10.40;;
23317;SDS011;11831;55.918;37.746;2023-02-01T05:46:25;18.65;;;10.10;;
23317;SDS011;11831;55.918;37.746;2023-02-01T05:48:52;19.60;;;10.35;;
23317;SDS011;11831;55.918;37.746;2023-02-01T05:51:18;19.42;;;10.93;;
23317;SDS011;11831;55.918;37.746;2023-02-01T05:53:44;17.05;;;10.43;;
23317;SDS011;11831;55.918;37.746;2023-02-01T05:56:11;18.85;;;11.57;;
23317;SDS011;11831;55.918;37.746;2023-02-01T05:58:37;20.55;;;12.25;;
23317;SDS011;11831;55.918;37.746;2023-02-01T06:01:03;20.75;;;12.50;;
23317;SDS011;11831;55.918;37.746;2023-02-01T06:03:30;19.62;;;12.05;;
23317;SDS011;11831;55.918;37.746;2023-02-01T06:05:56;22.15;;;12.27;;
23317;SDS011;11831;55.918;37.746;2023-02-01T06:08:23;22.02;;;12.10;;
23317;SDS011;11831;55.918;37.746;2023-02-01T06:10:59;19.00;;;11.65;;
23317;SDS011;11831;55.918;37.746;2023-02-01T06:13:26;23.83;;;13.27;;
23317;SDS011;11831;55.918;37.746;2023-02-01T06:15:53;18.90;;;11.77;;
23317;SDS011;11831;55.918;37.746;2023-02-01T06:18:19;24.20;;;12.88;;
23317;SDS011;11831;55.918;37.746;2023-02-01T06:20:51;22.33;;;13.13;;
23317;SDS011;11831;55.918;37.746;2023-02-01T06:23:21;22.98;;;12.98;;
23317;SDS011;11831;55.918;37.746;2023-02-01T06:25:50;22.23;;;12.77;;
23317;SDS011;11831;55.918;37.746;2023-02-01T06:28:17;24.95;;;13.25;;
23317;SDS011;11831;55.918;37.746;2023-02-01T06:30:44;22.92;;;13.57;;
23317;SDS011;11831;55.918;37.746;2023-02-01T06:33:12;23.35;;;14.05;;
23317;SDS011;11831;55.918;37.746;2023-02-01T06:35:41;32.58;;;17.67;;
23317;SDS011;11831;55.918;37.746;2023-02-01T06:38:10;23.55;;;13.55;;
23317;SDS011;11831;55.918;37.746;2023-02-01T06:40:37;25.92;;;14.02;;
23317;SDS011;11831;55.918;37.746;2023-02-01T06:43:04;22.83;;;13.90;;
23317;SDS011;11831;55.918;37.746;2023-02-01T06:45:31;23.67;;;14.00;;
23317;SDS011;11831;55.918;37.746;2023-02-01T06:47:58;28.65;;;14.13;;
23317;SDS011;11831;55.918;37.746;2023-02-01T06:50:25;26.67;;;14.40;;
23317;SDS011;11831;55.918;37.746;2023-02-01T06:52:52;25.27;;;13.98;;
23317;SDS011;11831;55.918;37.746;2023-02-01T06:55:18;24.37;;;13.73;;
23317;SDS011;11831;55.918;37.746;2023-02-01T06:57:44;23.02;;;13.48;;
23317;SDS011;11831;55.918;37.746;2023-02-01T07:00:11;22.80;;;13.88;;
23317;SDS011;11831;55.918;37.746;2023-02-01T07:02:37;24.10;;;13.75;;
23317;SDS011;11831;55.918;37.746;2023-02-01T07:05:04;23.20;;;14.02;;
23317;SDS011;11831;55.918;37.746;2023-02-01T07:07:31;25.88;;;14.02;;
23317;SDS011;11831;55.918;37.746;2023-02-01T07:09:57;26.42;;;14.98;;
23317;SDS011;11831;55.918;37.746;2023-02-01T07:12:24;27.98;;;14.30;;
23317;SDS011;11831;55.918;37.746;2023-02-01T07:14:50;23.85;;;13.25;;
23317;SDS011;11831;55.918;37.746;2023-02-01T07:17:16;26.25;;;14.77;;
23317;SDS011;11831;55.918;37.746;2023-02-01T07:19:42;29.37;;;14.63;;
23317;SDS011;11831;55.918;37.746;2023-02-01T07:22:09;28.25;;;14.32;;
23317;SDS011;11831;55.918;37.746;2023-02-01T07:24:35;27.02;;;14.68;;
23317;SDS011;11831;55.918;37.746;2023-02-01T07:27:01;27.48;;;13.73;;
23317;SDS011;11831;55.918;37.746;2023-02-01T07:29:28;25.92;;;13.48;;
23317;SDS011;11831;55.918;37.746;2023-02-01T07:31:54;25.67;;;13.48;;
23317;SDS011;11831;55.918;37.746;2023-02-01T07:34:20;29.52;;;14.80;;
23317;SDS011;11831;55.918;37.746;2023-02-01T07:36:46;25.65;;;13.45;;
23317;SDS011;11831;55.918;37.746;2023-02-01T07:39:13;26.48;;;13.85;;
23317;SDS011;11831;55.918;37.746;2023-02-01T07:41:39;25.67;;;15.20;;
23317;SDS011;11831;55.918;37.746;2023-02-01T07:44:05;27.27;;;14.70;;
23317;SDS011;11831;55.918;37.746;2023-02-01T07:46:32;28.40;;;15.80;;
23317;SDS011;11831;55.918;37.746;2023-02-01T07:48:58;30.17;;;15.75;;
23317;SDS011;11831;55.918;37.746;2023-02-01T07:51:24;30.20;;;15.98;;
23317;SDS011;11831;55.918;37.746;2023-02-01T07:53:50;32.00;;;16.58;;
23317;SDS011;11831;55.918;37.746;2023-02-01T07:56:18;29.50;;;16.42;;
23317;SDS011;11831;55.918;37.746;2023-02-01T07:58:53;30.75;;;16.83;;
23317;SDS011;11831;55.918;37.746;2023-02-01T08:01:25;33.95;;;17.80;;
23317;SDS011;11831;55.918;37.746;2023-02-01T08:03:54;29.77;;;16.92;;
23317;SDS011;11831;55.918;37.746;2023-02-01T08:06:23;37.03;;;17.75;;
23317;SDS011;11831;55.918;37.746;2023-02-01T08:08:51;33.40;;;18.27;;
23317;SDS011;11831;55.918;37.746;2023-02-01T08:11:18;33.25;;;17.90;;
23317;SDS011;11831;55.918;37.746;2023-02-01T08:13:45;33.92;;;18.50;;
23317;SDS011;11831;55.918;37.746;2023-02-01T08:16:13;34.10;;;19.45;;
23317;SDS011;11831;55.918;37.746;2023-02-01T08:18:41;32.65;;;18.00;;
23317;SDS011;11831;55.918;37.746;2023-02-01T08:23:43;33.78;;;18.67;;
23317;SDS011;11831;55.918;37.746;2023-02-01T08:26:11;31.40;;;18.75;;
23317;SDS011;11831;55.918;37.746;2023-02-01T08:28:41;34.17;;;19.43;;
23317;SDS011;11831;55.918;37.746;2023-02-01T08:31:11;36.28;;;19.52;;
23317;SDS011;11831;55.918;37.746;2023-02-01T08:33:40;33.67;;;18.52;;
23317;SDS011;11831;55.918;37.746;2023-02-01T08:36:09;33.38;;;18.40;;
23317;SDS011;11831;55.918;37.746;2023-02-01T08:38:37;61.80;;;38.10;;
23317;SDS011;11831;55.918;37.746;2023-02-01T08:41:09;31.73;;;19.15;;
23317;SDS011;11831;55.918;37.746;2023-02-01T08:43:37;35.67;;;19.75;;
23317;SDS011;11831;55.918;37.746;2023-02-01T08:46:04;34.45;;;19.52;;
23317;SDS011;11831;55.918;37.746;2023-02-01T08:48:31;34.17;;;19.83;;
23317;SDS011;11831;55.918;37.746;2023-02-01T08:51:00;33.80;;;18.80;;
23317;SDS011;11831;55.918;37.746;2023-02-01T08:53:28;32.55;;;18.73;;
23317;SDS011;11831;55.918;37.746;2023-02-01T08:55:55;32.72;;;19.05;;
23317;SDS011;11831;55.918;37.746;2023-02-01T08:58:21;35.92;;;18.90;;
23317;SDS011;11831;55.918;37.746;2023-02-01T09:00:48;32.33;;;17.92;;
23317;SDS011;11831;55.918;37.746;2023-02-01T09:03:14;32.85;;;18.62;;
23317;SDS011;11831;55.918;37.746;2023-02-01T09:05:41;30.90;;;18.65;;
23317;SDS011;11831;55.918;37.746;2023-02-01T09:08:07;29.92;;;18.10;;
23317;SDS011;11831;55.918;37.746;2023-02-01T09:10:34;30.45;;;17.85;;
23317;SDS011;11831;55.918;37.746;2023-02-01T09:13:02;31.17;;;17.42;;
23317;SDS011;11831;55.918;37.746;2023-02-01T09:15:28;34.95;;;19.25;;
23317;SDS011;11831;55.918;37.746;2023-02-01T09:17:55;29.25;;;17.77;;
23317;SDS011;11831;55.918;37.746;2023-02-01T09:20:21;34.03;;;18.17;;
23317;SDS011;11831;55.918;37.746;2023-02-01T09:22:50;31.75;;;18.90;;
23317;SDS011;11831;55.918;37.746;2023-02-01T09:25:17;31.33;;;18.12;;
23317;SDS011;11831;55.918;37.746;2023-02-01T09:27:44;28.25;;;17.12;;
23317;SDS011;11831;55.918;37.746;2023-02-01T09:30:10;34.55;;;18.58;;
23317;SDS011;11831;55.918;37.746;2023-02-01T09:32:37;31.17;;;17.87;;
23317;SDS011;11831;55.918;37.746;2023-02-01T09:35:03;28.85;;;18.10;;
23317;SDS011;11831;55.918;37.746;2023-02-01T09:37:30;30.92;;;17.65;;
23317;SDS011;11831;55.918;37.746;2023-02-01T09:39:56;34.38;;;21.10;;
23317;SDS011;11831;55.918;37.746;2023-02-01T09:47:51;31.30;;;17.77;;
23317;SDS011;11831;55.918;37.746;2023-02-01T09:50:22;26.15;;;15.00;;
23317;SDS011;11831;55.918;37.746;2023-02-01T09:53:01;26.73;;;16.42;;
23317;SDS011;11831;55.918;37.746;2023-02-01T09:55:43;29.37;;;17.52;;
23317;SDS011;11831;55.918;37.746;2023-02-01T09:58:27;27.70;;;17.12;;
23317;SDS011;11831;55.918;37.746;2023-02-01T10:01:00;25.48;;;15.65;;
23317;SDS011;11831;55.918;37.746;2023-02-01T10:03:29;25.27;;;15.50;;
23317;SDS011;11831;55.918;37.746;2023-02-01T10:14:18;30.27;;;17.05;;
23317;SDS011;11831;55.918;37.746;2023-02-01T10:17:04;40.12;;;22.13;;
23317;SDS011;11831;55.918;37.746;2023-02-01T10:22:42;68.28;;;35.67;;
23317;SDS011;11831;55.918;37.746;2023-02-01T10:25:26;90.03;;;44.92;;
23317;SDS011;11831;55.918;37.746;2023-02-01T10:27:59;68.78;;;37.38;;
23317;SDS011;11831;55.918;37.746;2023-02-01T10:30:30;61.35;;;36.00;;
23317;SDS011;11831;55.918;37.746;2023-02-01T10:33:39;56.05;;;29.35;;
23317;SDS011;11831;55.918;37.746;2023-02-01T10:36:20;38.10;;;21.65;;
23317;SDS011;11831;55.918;37.746;2023-02-01T10:38:47;36.30;;;19.75;;
23317;SDS011;11831;55.918;37.746;2023-02-01T10:41:17;25.90;;;16.40;;
23317;SDS011;11831;55.918;37.746;2023-02-01T10:43:50;25.80;;;17.08;;
23317;SDS011;11831;55.918;37.746;2023-02-01T10:46:22;29.77;;;17.45;;
23317;SDS011;11831;55.918;37.746;2023-02-01T10:48:49;26.20;;;17.30;;
23317;SDS011;11831;55.918;37.746;2023-02-01T10:54:17;29.00;;;17.85;;
23317;SDS011;11831;55.918;37.746;2023-02-01T10:56:46;31.33;;;18.45;;
23317;SDS011;11831;55.918;37.746;2023-02-01T10:59:21;32.88;;;19.70;;
23317;SDS011;11831;55.918;37.746;2023-02-01T11:01:57;31.85;;;19.45;;
23317;SDS011;11831;55.918;37.746;2023-02-01T11:04:26;31.27;;;18.40;;
23317;SDS011;11831;55.918;37.746;2023-02-01T11:06:53;30.48;;;18.70;;
23317;SDS011;11831;55.918;37.746;2023-02-01T11:09:31;28.65;;;18.00;;
23317;SDS011;11831;55.918;37.746;2023-02-01T11:11:58;28.00;;;18.08;;
23317;SDS011;11831;55.918;37.746;2023-02-01T11:14:47;31.00;;;19.65;;
23317;SDS011;11831;55.918;37.746;2023-02-01T11:17:32;33.50;;;19.55;;
23317;SDS011;11831;55.918;37.746;2023-02-01T11:20:02;32.17;;;19.23;;
23317;SDS011;11831;55.918;37.746;2023-02-01T11:22:31;32.45;;;19.48;;
23317;SDS011;11831;55.918;37.746;2023-02-01T11:24:58;32.40;;;18.70;;
23317;SDS011;11831;55.918;37.746;2023-02-01T11:27:28;33.75;;;18.98;;
23317;SDS011;11831;55.918;37.746;2023-02-01T11:29:56;33.13;;;19.60;;
23317;SDS011;11831;55.918;37.746;2023-02-01T11:32:30;29.40;;;18.05;;
23317;SDS011;11831;55.918;37.746;2023-02-01T11:37:33;29.65;;;16.60;;
23317;SDS011;11831;55.918;37.746;2023-02-01T11:40:08;30.85;;;17.83;;
23317;SDS011;11831;55.918;37.746;2023-02-01T11:45:26;28.25;;;16.83;;
23317;SDS011;11831;55.918;37.746;2023-02-01T11:47:55;29.20;;;17.35;;
23317;SDS011;11831;55.918;37.746;2023-02-01T11:50:32;27.45;;;16.80;;
23317;SDS011;11831;55.918;37.746;2023-02-01T11:53:03;27.42;;;16.73;;
23317;SDS011;11831;55.918;37.746;2023-02-01T12:00:46;27.67;;;17.55;;
23317;SDS011;11831;55.918;37.746;2023-02-01T12:20:41;33.38;;;17.30;;
23317;SDS011;11831;55.918;37.746;2023-02-01T12:34:51;29.63;;;17.30;;
23317;SDS011;11831;55.918;37.746;2023-02-01T12:43:59;31.25;;;18.83;;
23317;SDS011;11831;55.918;37.746;2023-02-01T12:46:27;27.98;;;17.45;;
23317;SDS011;11831;55.918;37.746;2023-02-01T12:49:00;27.02;;;16.85;;
23317;SDS011;11831;55.918;37.746;2023-02-01T12:51:34;27.70;;;17.65;;
23317;SDS011;11831;55.918;37.746;2023-02-01T12:56:52;31.87;;;18.17;;
23317;SDS011;11831;55.918;37.746;2023-02-01T12:59:42;29.80;;;17.58;;
23317;SDS011;11831;55.918;37.746;2023-02-01T13:02:21;28.08;;;17.20;;
23317;SDS011;11831;55.918;37.746;2023-02-01T13:05:18;33.05;;;19.27;;
23317;SDS011;11831;55.918;37.746;2023-02-01T13:08:02;32.20;;;18.50;;
23317;SDS011;11831;55.918;37.746;2023-02-01T13:10:38;29.20;;;17.77;;
23317;SDS011;11831;55.918;37.746;2023-02-01T13:14:11;32.70;;;19.37;;
23317;SDS011;11831;55.918;37.746;2023-02-01T13:16:27;29.77;;;18.08;;
23317;SDS011;11831;55.918;37.746;2023-02-01T13:21:48;26.92;;;17.35;;
23317;SDS011;11831;55.918;37.746;2023-02-01T13:27:10;31.12;;;15.65;;
23317;SDS011;11831;55.918;37.746;2023-02-01T13:29:51;21.43;;;14.03;;
23317;SDS011;11831;55.918;37.746;2023-02-01T13:35:06;19.25;;;12.18;;
23317;SDS011;11831;55.918;37.746;2023-02-01T13:43:22;24.98;;;14.40;;
23317;SDS011;11831;55.918;37.746;2023-02-01T13:45:53;21.20;;;13.73;;
23317;SDS011;11831;55.918;37.746;2023-02-01T13:48:38;20.35;;;13.48;;
23317;SDS011;11831;55.918;37.746;2023-02-01T13:51:07;21.70;;;12.90;;
23317;SDS011;11831;55.918;37.746;2023-02-01T13:53:34;20.37;;;13.68;;
23317;SDS011;11831;55.918;37.746;2023-02-01T13:56:12;24.80;;;13.85;;
23317;SDS011;11831;55.918;37.746;2023-02-01T13:58:42;20.10;;;13.57;;
23317;SDS011;11831;55.918;37.746;2023-02-01T14:19:30;19.98;;;12.50;;
23317;SDS011;11831;55.918;37.746;2023-02-01T14:21:59;20.37;;;12.10;;
23317;SDS011;11831;55.918;37.746;2023-02-01T14:24:50;21.25;;;12.63;;
23317;SDS011;11831;55.918;37.746;2023-02-01T14:27:23;21.50;;;13.20;;
23317;SDS011;11831;55.918;37.746;2023-02-01T14:29:54;20.85;;;12.55;;
23317;SDS011;11831;55.918;37.746;2023-02-01T14:32:26;21.80;;;13.07;;
23317;SDS011;11831;55.918;37.746;2023-02-01T14:35:00;21.05;;;13.05;;
23317;SDS011;11831;55.918;37.746;2023-02-01T14:37:32;22.27;;;13.35;;
23317;SDS011;11831;55.918;37.746;2023-02-01T14:40:06;22.67;;;13.45;;
23317;SDS011;11831;55.918;37.746;2023-02-01T14:42:46;22.37;;;13.62;;
23317;SDS011;11831;55.918;37.746;2023-02-01T14:47:50;21.62;;;13.52;;
23317;SDS011;11831;55.918;37.746;2023-02-01T14:58:19;21.40;;;12.15;;
23317;SDS011;11831;55.918;37.746;2023-02-01T15:01:00;22.05;;;13.25;;
23317;SDS011;11831;55.918;37.746;2023-02-01T15:06:17;20.88;;;12.82;;
23317;SDS011;11831;55.918;37.746;2023-02-01T15:17:37;22.83;;;13.25;;
23317;SDS011;11831;55.918;37.746;2023-02-01T15:20:14;22.92;;;13.07;;
23317;SDS011;11831;55.918;37.746;2023-02-01T15:22:43;22.58;;;14.23;;
23317;SDS011;11831;55.918;37.746;2023-02-01T15:25:19;22.75;;;13.43;;
23317;SDS011;11831;55.918;37.746;2023-02-01T15:27:48;23.35;;;14.32;;
23317;SDS011;11831;55.918;37.746;2023-02-01T15:30:19;24.20;;;14.57;;
23317;SDS011;11831;55.918;37.746;2023-02-01T15:32:51;24.70;;;13.85;;
23317;SDS011;11831;55.918;37.746;2023-02-01T15:35:32;26.60;;;14.48;;
23317;SDS011;11831;55.918;37.746;2023-02-01T15:38:20;25.40;;;13.57;;
23317;SDS011;11831;55.918;37.746;2023-02-01T15:41:01;23.27;;;15.48;;
23317;SDS011;11831;55.918;37.746;2023-02-01T15:46:31;25.98;;;14.13;;
23317;SDS011;11831;55.918;37.746;2023-02-01T15:49:03;22.35;;;13.70;;
23317;SDS011;11831;55.918;37.746;2023-02-01T15:51:31;24.15;;;14.27;;
23317;SDS011;11831;55.918;37.746;2023-02-01T15:53:59;27.10;;;14.55;;
23317;SDS011;11831;55.918;37.746;2023-02-01T15:56:35;22.15;;;13.35;;
23317;SDS011;11831;55.918;37.746;2023-02-01T15:59:05;19.20;;;12.20;;
23317;SDS011;11831;55.918;37.746;2023-02-01T16:01:38;21.75;;;13.23;;
23317;SDS011;11831;55.918;37.746;2023-02-01T16:06:49;24.60;;;14.48;;
23317;SDS011;11831;55.918;37.746;2023-02-01T16:09:21;24.80;;;13.70;;
23317;SDS011;11831;55.918;37.746;2023-02-01T16:11:59;25.92;;;14.00;;
23317;SDS011;11831;55.918;37.746;2023-02-01T16:14:27;23.58;;;15.40;;
23317;SDS011;11831;55.918;37.746;2023-02-01T16:16:55;24.52;;;14.55;;
23317;SDS011;11831;55.918;37.746;2023-02-01T16:19:23;21.42;;;12.40;;
23317;SDS011;11831;55.918;37.746;2023-02-01T16:21:54;21.58;;;13.15;;
23317;SDS011;11831;55.918;37.746;2023-02-01T16:24:21;20.20;;;12.40;;
23317;SDS011;11831;55.918;37.746;2023-02-01T16:26:50;22.17;;;12.35;;
23317;SDS011;11831;55.918;37.746;2023-02-01T16:29:16;20.02;;;11.60;;
23317;SDS011;11831;55.918;37.746;2023-02-01T16:31:43;20.95;;;12.52;;
23317;SDS011;11831;55.918;37.746;2023-02-01T16:34:13;24.02;;;13.50;;
23317;SDS011;11831;55.918;37.746;2023-02-01T16:36:47;19.35;;;12.27;;
23317;SDS011;11831;55.918;37.746;2023-02-01T16:39:18;25.75;;;13.13;;
23317;SDS011;11831;55.918;37.746;2023-02-01T16:41:45;24.23;;;14.73;;
23317;SDS011;11831;55.918;37.746;2023-02-01T16:44:11;23.40;;;14.13;;
23317;SDS011;11831;55.918;37.746;2023-02-01T16:46:44;25.48;;;14.13;;
23317;SDS011;11831;55.918;37.746;2023-02-01T16:49:20;26.75;;;15.38;;
23317;SDS011;11831;55.918;37.746;2023-02-01T16:51:49;26.33;;;15.88;;
23317;SDS011;11831;55.918;37.746;2023-02-01T16:54:18;27.23;;;16.05;;
23317;SDS011;11831;55.918;37.746;2023-02-01T16:56:45;27.52;;;15.25;;
23317;SDS011;11831;55.918;37.746;2023-02-01T16:59:12;29.45;;;16.02;;
23317;SDS011;11831;55.918;37.746;2023-02-01T17:01:40;27.05;;;16.42;;
23317;SDS011;11831;55.918;37.746;2023-02-01T17:04:11;27.85;;;15.18;;
23317;SDS011;11831;55.918;37.746;2023-02-01T17:06:37;26.15;;;16.02;;
23317;SDS011;11831;55.918;37.746;2023-02-01T17:09:04;24.17;;;15.48;;
23317;SDS011;11831;55.918;37.746;2023-02-01T17:11:31;28.00;;;16.90;;
23317;SDS011;11831;55.918;37.746;2023-02-01T17:14:08;29.23;;;17.17;;
23317;SDS011;11831;55.918;37.746;2023-02-01T17:16:46;29.35;;;16.27;;
23317;SDS011;11831;55.918;37.746;2023-02-01T17:19:15;25.62;;;16.20;;
23317;SDS011;11831;55.918;37.746;2023-02-01T17:21:48;26.30;;;15.82;;